Flugplatz Blaubeuren

Für EDMC sind keine METAR/TAF Berichte vorhanden.
Es werden die Flugwettermeldungen vom Flugplatz Laupheim Airport in 23 km Entfernung angezeigt.

Bericht für ETHL

vom 20.10. um 03:20 UTC

Wind 3 kt aus 220°

Sichtweite 10 km oder mehr

flacher Bodennebel

gering bewölkt in 28000 ft

Temperatur 7.0°C

Taupunkt 6.0°C

Luftfeuchtigkeit 93%

Luftdruck 1019 hPa

ETHL 200320Z 22003KT 9999 MIFG FEW280 07/06 Q1019 BLU+
Keine Prognose (TAF) verfügbar.
Impressum